sensor_id;sensor_type;location;lat;lon;timestamp;P1;durP1;ratioP1;P2;durP2;ratioP2
36191;SDS011;22233;42.708;23.360;2023-07-29T00:01:50;4.03;;;3.00;;
36191;SDS011;22233;42.708;23.360;2023-07-29T00:04:17;4.60;;;2.80;;
36191;SDS011;22233;42.708;23.360;2023-07-29T00:06:42;3.22;;;2.70;;
36191;SDS011;22233;42.708;23.360;2023-07-29T00:09:07;4.75;;;2.97;;
36191;SDS011;22233;42.708;23.360;2023-07-29T00:11:33;3.42;;;2.85;;
36191;SDS011;22233;42.708;23.360;2023-07-29T00:13:59;5.25;;;3.10;;
36191;SDS011;22233;42.708;23.360;2023-07-29T00:16:28;3.95;;;3.30;;
36191;SDS011;22233;42.708;23.360;2023-07-29T00:18:53;3.88;;;3.03;;
36191;SDS011;22233;42.708;23.360;2023-07-29T00:21:18;3.80;;;2.72;;
36191;SDS011;22233;42.708;23.360;2023-07-29T00:23:44;3.92;;;3.17;;
36191;SDS011;22233;42.708;23.360;2023-07-29T00:26:10;4.47;;;2.92;;
36191;SDS011;22233;42.708;23.360;2023-07-29T00:28:35;5.68;;;4.65;;
36191;SDS011;22233;42.708;23.360;2023-07-29T00:31:01;4.13;;;3.28;;
36191;SDS011;22233;42.708;23.360;2023-07-29T00:33:27;6.63;;;3.45;;
36191;SDS011;22233;42.708;23.360;2023-07-29T00:35:52;7.57;;;3.35;;
36191;SDS011;22233;42.708;23.360;2023-07-29T00:38:18;5.75;;;2.95;;
36191;SDS011;22233;42.708;23.360;2023-07-29T00:40:43;5.43;;;2.92;;
36191;SDS011;22233;42.708;23.360;2023-07-29T00:43:08;8.15;;;3.20;;
36191;SDS011;22233;42.708;23.360;2023-07-29T00:45:34;3.33;;;2.95;;
36191;SDS011;22233;42.708;23.360;2023-07-29T00:47:59;4.50;;;3.05;;
36191;SDS011;22233;42.708;23.360;2023-07-29T00:50:26;4.45;;;3.03;;
36191;SDS011;22233;42.708;23.360;2023-07-29T00:52:53;6.63;;;3.33;;
36191;SDS011;22233;42.708;23.360;2023-07-29T00:55:19;3.80;;;2.75;;
36191;SDS011;22233;42.708;23.360;2023-07-29T00:57:45;3.33;;;3.00;;
36191;SDS011;22233;42.708;23.360;2023-07-29T01:00:13;4.10;;;2.78;;
36191;SDS011;22233;42.708;23.360;2023-07-29T01:02:39;5.38;;;3.10;;
36191;SDS011;22233;42.708;23.360;2023-07-29T01:05:05;3.33;;;2.60;;
36191;SDS011;22233;42.708;23.360;2023-07-29T01:10:03;4.57;;;3.38;;
36191;SDS011;22233;42.708;23.360;2023-07-29T01:12:35;4.20;;;2.92;;
36191;SDS011;22233;42.708;23.360;2023-07-29T01:15:09;3.30;;;3.00;;
36191;SDS011;22233;42.708;23.360;2023-07-29T01:18:18;3.10;;;2.78;;
36191;SDS011;22233;42.708;23.360;2023-07-29T01:20:43;3.95;;;2.90;;
36191;SDS011;22233;42.708;23.360;2023-07-29T01:23:11;3.30;;;3.00;;
36191;SDS011;22233;42.708;23.360;2023-07-29T01:25:36;4.93;;;2.85;;
36191;SDS011;22233;42.708;23.360;2023-07-29T01:28:02;6.50;;;3.50;;
36191;SDS011;22233;42.708;23.360;2023-07-29T01:30:33;4.30;;;3.10;;
36191;SDS011;22233;42.708;23.360;2023-07-29T01:35:42;5.53;;;2.75;;
36191;SDS011;22233;42.708;23.360;2023-07-29T01:38:24;4.60;;;3.33;;
36191;SDS011;22233;42.708;23.360;2023-07-29T01:40:56;4.38;;;3.45;;
36191;SDS011;22233;42.708;23.360;2023-07-29T01:43:24;4.57;;;3.42;;
36191;SDS011;22233;42.708;23.360;2023-07-29T01:45:50;7.72;;;3.35;;
36191;SDS011;22233;42.708;23.360;2023-07-29T01:48:16;5.80;;;3.50;;
36191;SDS011;22233;42.708;23.360;2023-07-29T01:50:42;3.65;;;3.33;;
36191;SDS011;22233;42.708;23.360;2023-07-29T01:53:08;3.97;;;3.50;;
36191;SDS011;22233;42.708;23.360;2023-07-29T01:55:33;9.95;;;3.38;;
36191;SDS011;22233;42.708;23.360;2023-07-29T01:57:58;8.10;;;3.40;;
36191;SDS011;22233;42.708;23.360;2023-07-29T02:00:24;3.47;;;3.08;;
36191;SDS011;22233;42.708;23.360;2023-07-29T02:02:49;4.35;;;3.35;;
36191;SDS011;22233;42.708;23.360;2023-07-29T02:05:14;8.57;;;3.20;;
36191;SDS011;22233;42.708;23.360;2023-07-29T02:07:40;12.93;;;3.80;;
36191;SDS011;22233;42.708;23.360;2023-07-29T02:10:06;8.73;;;4.00;;
36191;SDS011;22233;42.708;23.360;2023-07-29T02:12:32;5.55;;;3.50;;
36191;SDS011;22233;42.708;23.360;2023-07-29T02:14:57;6.03;;;3.50;;
36191;SDS011;22233;42.708;23.360;2023-07-29T02:17:23;5.47;;;3.45;;
36191;SDS011;22233;42.708;23.360;2023-07-29T02:19:48;4.20;;;3.55;;
36191;SDS011;22233;42.708;23.360;2023-07-29T02:22:14;5.95;;;4.15;;
36191;SDS011;22233;42.708;23.360;2023-07-29T02:24:40;4.18;;;3.40;;
36191;SDS011;22233;42.708;23.360;2023-07-29T02:27:06;5.43;;;3.47;;
36191;SDS011;22233;42.708;23.360;2023-07-29T02:29:31;4.53;;;3.70;;
36191;SDS011;22233;42.708;23.360;2023-07-29T02:31:58;5.40;;;3.30;;
36191;SDS011;22233;42.708;23.360;2023-07-29T02:34:23;4.45;;;3.60;;
36191;SDS011;22233;42.708;23.360;2023-07-29T02:36:49;6.18;;;3.40;;
36191;SDS011;22233;42.708;23.360;2023-07-29T02:39:14;4.47;;;3.60;;
36191;SDS011;22233;42.708;23.360;2023-07-29T02:41:39;6.60;;;3.35;;
36191;SDS011;22233;42.708;23.360;2023-07-29T02:44:05;6.28;;;3.53;;
36191;SDS011;22233;42.708;23.360;2023-07-29T02:46:31;6.57;;;3.58;;
36191;SDS011;22233;42.708;23.360;2023-07-29T02:48:56;3.47;;;2.83;;
36191;SDS011;22233;42.708;23.360;2023-07-29T02:51:21;3.50;;;3.20;;
36191;SDS011;22233;42.708;23.360;2023-07-29T02:53:47;8.10;;;3.00;;
36191;SDS011;22233;42.708;23.360;2023-07-29T02:56:12;3.33;;;2.95;;
36191;SDS011;22233;42.708;23.360;2023-07-29T02:58:38;6.25;;;3.30;;
36191;SDS011;22233;42.708;23.360;2023-07-29T03:01:04;4.53;;;3.42;;
36191;SDS011;22233;42.708;23.360;2023-07-29T03:03:31;4.80;;;3.20;;
36191;SDS011;22233;42.708;23.360;2023-07-29T03:06:03;4.28;;;3.40;;
36191;SDS011;22233;42.708;23.360;2023-07-29T03:08:30;7.22;;;3.80;;
36191;SDS011;22233;42.708;23.360;2023-07-29T03:10:56;3.90;;;3.00;;
36191;SDS011;22233;42.708;23.360;2023-07-29T03:13:22;6.90;;;3.40;;
36191;SDS011;22233;42.708;23.360;2023-07-29T03:15:47;3.22;;;2.92;;
36191;SDS011;22233;42.708;23.360;2023-07-29T03:18:13;3.92;;;3.50;;
36191;SDS011;22233;42.708;23.360;2023-07-29T03:20:39;4.70;;;3.58;;
36191;SDS011;22233;42.708;23.360;2023-07-29T03:23:04;6.32;;;3.30;;
36191;SDS011;22233;42.708;23.360;2023-07-29T03:25:30;4.85;;;3.63;;
36191;SDS011;22233;42.708;23.360;2023-07-29T03:27:55;5.70;;;3.97;;
36191;SDS011;22233;42.708;23.360;2023-07-29T03:30:21;5.78;;;3.33;;
36191;SDS011;22233;42.708;23.360;2023-07-29T03:32:47;8.80;;;3.97;;
36191;SDS011;22233;42.708;23.360;2023-07-29T03:35:14;5.35;;;3.55;;
36191;SDS011;22233;42.708;23.360;2023-07-29T03:37:39;7.00;;;4.50;;
36191;SDS011;22233;42.708;23.360;2023-07-29T03:40:06;4.05;;;3.50;;
36191;SDS011;22233;42.708;23.360;2023-07-29T03:42:32;6.10;;;3.45;;
36191;SDS011;22233;42.708;23.360;2023-07-29T03:44:57;5.45;;;3.58;;
36191;SDS011;22233;42.708;23.360;2023-07-29T03:47:22;9.57;;;4.18;;
36191;SDS011;22233;42.708;23.360;2023-07-29T03:49:48;4.00;;;3.15;;
36191;SDS011;22233;42.708;23.360;2023-07-29T03:52:13;4.90;;;3.80;;
36191;SDS011;22233;42.708;23.360;2023-07-29T03:54:39;5.82;;;3.70;;
36191;SDS011;22233;42.708;23.360;2023-07-29T03:57:04;6.43;;;3.78;;
36191;SDS011;22233;42.708;23.360;2023-07-29T03:59:30;5.60;;;3.55;;
36191;SDS011;22233;42.708;23.360;2023-07-29T04:01:55;5.22;;;3.70;;
36191;SDS011;22233;42.708;23.360;2023-07-29T04:04:21;5.40;;;4.43;;
36191;SDS011;22233;42.708;23.360;2023-07-29T04:06:46;6.47;;;4.18;;
36191;SDS011;22233;42.708;23.360;2023-07-29T04:09:12;4.90;;;4.28;;
36191;SDS011;22233;42.708;23.360;2023-07-29T04:11:38;7.13;;;5.00;;
36191;SDS011;22233;42.708;23.360;2023-07-29T04:14:03;5.53;;;4.53;;
36191;SDS011;22233;42.708;23.360;2023-07-29T04:16:29;5.93;;;5.18;;
36191;SDS011;22233;42.708;23.360;2023-07-29T04:18:54;5.07;;;4.30;;
36191;SDS011;22233;42.708;23.360;2023-07-29T04:21:19;7.43;;;3.78;;
36191;SDS011;22233;42.708;23.360;2023-07-29T04:23:45;6.07;;;5.05;;
36191;SDS011;22233;42.708;23.360;2023-07-29T04:26:10;5.65;;;3.63;;
36191;SDS011;22233;42.708;23.360;2023-07-29T04:28:36;5.30;;;4.35;;
36191;SDS011;22233;42.708;23.360;2023-07-29T04:31:01;5.55;;;4.10;;
36191;SDS011;22233;42.708;23.360;2023-07-29T04:35:54;6.60;;;4.28;;
36191;SDS011;22233;42.708;23.360;2023-07-29T04:38:20;6.72;;;4.43;;
36191;SDS011;22233;42.708;23.360;2023-07-29T04:40:45;5.75;;;4.55;;
36191;SDS011;22233;42.708;23.360;2023-07-29T04:43:10;6.78;;;4.20;;
36191;SDS011;22233;42.708;23.360;2023-07-29T04:45:36;11.23;;;4.45;;
36191;SDS011;22233;42.708;23.360;2023-07-29T04:48:06;10.23;;;4.63;;
36191;SDS011;22233;42.708;23.360;2023-07-29T04:50:32;7.47;;;3.88;;
36191;SDS011;22233;42.708;23.360;2023-07-29T04:52:57;5.22;;;3.88;;
36191;SDS011;22233;42.708;23.360;2023-07-29T04:55:23;7.32;;;4.25;;
36191;SDS011;22233;42.708;23.360;2023-07-29T04:57:48;6.63;;;5.20;;
36191;SDS011;22233;42.708;23.360;2023-07-29T05:00:13;5.93;;;4.20;;
36191;SDS011;22233;42.708;23.360;2023-07-29T05:02:39;6.32;;;4.32;;
36191;SDS011;22233;42.708;23.360;2023-07-29T05:05:05;7.13;;;4.38;;
36191;SDS011;22233;42.708;23.360;2023-07-29T05:07:30;5.68;;;4.18;;
36191;SDS011;22233;42.708;23.360;2023-07-29T05:09:56;3.78;;;3.20;;
36191;SDS011;22233;42.708;23.360;2023-07-29T05:12:21;4.40;;;4.00;;
36191;SDS011;22233;42.708;23.360;2023-07-29T05:14:46;5.53;;;4.25;;
36191;SDS011;22233;42.708;23.360;2023-07-29T05:17:13;4.85;;;4.00;;
36191;SDS011;22233;42.708;23.360;2023-07-29T05:19:38;4.97;;;3.60;;
36191;SDS011;22233;42.708;23.360;2023-07-29T05:22:04;6.50;;;4.32;;
36191;SDS011;22233;42.708;23.360;2023-07-29T05:24:29;6.45;;;4.38;;
36191;SDS011;22233;42.708;23.360;2023-07-29T05:26:54;5.18;;;4.00;;
36191;SDS011;22233;42.708;23.360;2023-07-29T05:29:20;6.30;;;4.75;;
36191;SDS011;22233;42.708;23.360;2023-07-29T05:31:45;5.72;;;4.15;;
36191;SDS011;22233;42.708;23.360;2023-07-29T05:34:11;9.27;;;5.28;;
36191;SDS011;22233;42.708;23.360;2023-07-29T05:36:36;11.18;;;5.07;;
36191;SDS011;22233;42.708;23.360;2023-07-29T05:39:01;7.47;;;4.93;;
36191;SDS011;22233;42.708;23.360;2023-07-29T05:41:27;6.72;;;4.40;;
36191;SDS011;22233;42.708;23.360;2023-07-29T05:43:53;6.68;;;4.57;;
36191;SDS011;22233;42.708;23.360;2023-07-29T05:46:19;6.78;;;4.43;;
36191;SDS011;22233;42.708;23.360;2023-07-29T05:48:44;10.30;;;5.18;;
36191;SDS011;22233;42.708;23.360;2023-07-29T05:51:10;10.18;;;5.45;;
36191;SDS011;22233;42.708;23.360;2023-07-29T05:53:35;6.03;;;4.82;;
36191;SDS011;22233;42.708;23.360;2023-07-29T05:56:01;7.63;;;4.70;;
36191;SDS011;22233;42.708;23.360;2023-07-29T05:58:26;8.57;;;6.78;;
36191;SDS011;22233;42.708;23.360;2023-07-29T06:00:51;10.60;;;5.57;;
36191;SDS011;22233;42.708;23.360;2023-07-29T06:03:17;7.60;;;5.03;;
36191;SDS011;22233;42.708;23.360;2023-07-29T06:05:42;5.45;;;4.80;;
36191;SDS011;22233;42.708;23.360;2023-07-29T06:08:08;6.40;;;5.00;;
36191;SDS011;22233;42.708;23.360;2023-07-29T06:10:36;7.88;;;5.03;;
36191;SDS011;22233;42.708;23.360;2023-07-29T06:13:01;9.20;;;4.90;;
36191;SDS011;22233;42.708;23.360;2023-07-29T06:15:27;4.43;;;4.03;;
36191;SDS011;22233;42.708;23.360;2023-07-29T06:17:53;5.50;;;4.43;;
36191;SDS011;22233;42.708;23.360;2023-07-29T06:20:18;5.55;;;4.50;;
36191;SDS011;22233;42.708;23.360;2023-07-29T06:22:44;4.88;;;4.25;;
36191;SDS011;22233;42.708;23.360;2023-07-29T06:25:09;5.40;;;4.25;;
36191;SDS011;22233;42.708;23.360;2023-07-29T06:27:34;5.20;;;4.60;;
36191;SDS011;22233;42.708;23.360;2023-07-29T06:30:00;5.03;;;4.50;;
36191;SDS011;22233;42.708;23.360;2023-07-29T06:32:26;11.60;;;5.35;;
36191;SDS011;22233;42.708;23.360;2023-07-29T06:34:51;10.88;;;4.90;;
36191;SDS011;22233;42.708;23.360;2023-07-29T06:37:19;5.35;;;4.85;;
36191;SDS011;22233;42.708;23.360;2023-07-29T06:39:44;10.00;;;5.30;;
36191;SDS011;22233;42.708;23.360;2023-07-29T06:42:09;5.95;;;5.03;;
36191;SDS011;22233;42.708;23.360;2023-07-29T06:44:35;8.00;;;4.28;;
36191;SDS011;22233;42.708;23.360;2023-07-29T06:47:00;8.65;;;4.28;;
36191;SDS011;22233;42.708;23.360;2023-07-29T06:49:25;4.70;;;3.88;;
36191;SDS011;22233;42.708;23.360;2023-07-29T06:51:51;6.05;;;4.43;;
36191;SDS011;22233;42.708;23.360;2023-07-29T06:54:16;6.75;;;3.97;;
36191;SDS011;22233;42.708;23.360;2023-07-29T06:56:42;6.95;;;4.22;;
36191;SDS011;22233;42.708;23.360;2023-07-29T06:59:08;7.57;;;4.38;;
36191;SDS011;22233;42.708;23.360;2023-07-29T07:01:33;7.25;;;4.18;;
36191;SDS011;22233;42.708;23.360;2023-07-29T07:03:59;5.88;;;3.42;;
36191;SDS011;22233;42.708;23.360;2023-07-29T07:06:24;6.28;;;4.00;;
36191;SDS011;22233;42.708;23.360;2023-07-29T07:08:50;5.32;;;4.03;;
36191;SDS011;22233;42.708;23.360;2023-07-29T07:11:16;4.75;;;4.18;;
36191;SDS011;22233;42.708;23.360;2023-07-29T07:13:43;6.22;;;4.15;;
36191;SDS011;22233;42.708;23.360;2023-07-29T07:16:08;4.32;;;3.63;;
36191;SDS011;22233;42.708;23.360;2023-07-29T07:18:33;6.32;;;3.97;;
36191;SDS011;22233;42.708;23.360;2023-07-29T07:20:59;6.55;;;3.92;;
36191;SDS011;22233;42.708;23.360;2023-07-29T07:23:24;6.32;;;3.47;;
36191;SDS011;22233;42.708;23.360;2023-07-29T07:25:49;9.93;;;4.22;;
36191;SDS011;22233;42.708;23.360;2023-07-29T07:28:15;5.60;;;3.75;;
36191;SDS011;22233;42.708;23.360;2023-07-29T07:30:40;8.98;;;3.65;;
36191;SDS011;22233;42.708;23.360;2023-07-29T07:33:06;5.25;;;3.95;;
36191;SDS011;22233;42.708;23.360;2023-07-29T07:35:32;8.68;;;3.83;;
36191;SDS011;22233;42.708;23.360;2023-07-29T07:37:57;5.35;;;4.22;;
36191;SDS011;22233;42.708;23.360;2023-07-29T07:40:24;5.95;;;4.07;;
36191;SDS011;22233;42.708;23.360;2023-07-29T07:42:49;4.97;;;3.17;;
36191;SDS011;22233;42.708;23.360;2023-07-29T07:45:15;7.07;;;3.35;;
36191;SDS011;22233;42.708;23.360;2023-07-29T07:47:42;6.72;;;3.80;;
36191;SDS011;22233;42.708;23.360;2023-07-29T07:50:07;5.03;;;3.38;;
36191;SDS011;22233;42.708;23.360;2023-07-29T07:52:33;6.35;;;3.80;;
36191;SDS011;22233;42.708;23.360;2023-07-29T07:54:58;5.35;;;3.78;;
36191;SDS011;22233;42.708;23.360;2023-07-29T07:57:23;6.95;;;3.42;;
36191;SDS011;22233;42.708;23.360;2023-07-29T07:59:49;5.38;;;3.60;;
36191;SDS011;22233;42.708;23.360;2023-07-29T08:02:15;3.85;;;3.40;;
36191;SDS011;22233;42.708;23.360;2023-07-29T08:04:41;7.78;;;3.47;;
36191;SDS011;22233;42.708;23.360;2023-07-29T08:07:06;7.15;;;3.58;;
36191;SDS011;22233;42.708;23.360;2023-07-29T08:09:31;5.13;;;3.72;;
36191;SDS011;22233;42.708;23.360;2023-07-29T08:11:57;7.60;;;3.42;;
36191;SDS011;22233;42.708;23.360;2023-07-29T08:14:22;5.80;;;3.22;;
36191;SDS011;22233;42.708;23.360;2023-07-29T08:16:47;6.40;;;3.30;;
36191;SDS011;22233;42.708;23.360;2023-07-29T08:19:13;6.10;;;3.40;;
36191;SDS011;22233;42.708;23.360;2023-07-29T08:21:38;6.03;;;3.60;;
36191;SDS011;22233;42.708;23.360;2023-07-29T08:24:04;5.05;;;3.45;;
36191;SDS011;22233;42.708;23.360;2023-07-29T08:26:29;3.70;;;2.80;;
36191;SDS011;22233;42.708;23.360;2023-07-29T08:28:55;4.85;;;2.60;;
36191;SDS011;22233;42.708;23.360;2023-07-29T08:31:20;3.00;;;2.60;;
36191;SDS011;22233;42.708;23.360;2023-07-29T08:33:45;3.40;;;2.70;;
36191;SDS011;22233;42.708;23.360;2023-07-29T08:36:11;3.67;;;2.60;;
36191;SDS011;22233;42.708;23.360;2023-07-29T08:38:36;4.53;;;3.10;;
36191;SDS011;22233;42.708;23.360;2023-07-29T08:43:41;6.75;;;3.92;;
36191;SDS011;22233;42.708;23.360;2023-07-29T08:46:15;4.43;;;2.75;;
36191;SDS011;22233;42.708;23.360;2023-07-29T08:48:42;7.40;;;3.30;;
36191;SDS011;22233;42.708;23.360;2023-07-29T08:51:08;3.97;;;2.90;;
36191;SDS011;22233;42.708;23.360;2023-07-29T08:53:35;3.63;;;3.20;;
36191;SDS011;22233;42.708;23.360;2023-07-29T08:56:01;5.25;;;2.50;;
36191;SDS011;22233;42.708;23.360;2023-07-29T08:58:27;5.07;;;2.40;;
36191;SDS011;22233;42.708;23.360;2023-07-29T09:00:53;4.00;;;2.60;;
36191;SDS011;22233;42.708;23.360;2023-07-29T09:03:19;4.10;;;2.30;;
36191;SDS011;22233;42.708;23.360;2023-07-29T09:05:45;3.40;;;2.05;;
36191;SDS011;22233;42.708;23.360;2023-07-29T09:08:11;6.00;;;2.10;;
36191;SDS011;22233;42.708;23.360;2023-07-29T09:10:36;3.22;;;1.77;;
36191;SDS011;22233;42.708;23.360;2023-07-29T09:13:02;4.93;;;1.80;;
36191;SDS011;22233;42.708;23.360;2023-07-29T09:15:29;1.83;;;1.40;;
36191;SDS011;22233;42.708;23.360;2023-07-29T09:17:56;3.42;;;1.65;;
36191;SDS011;22233;42.708;23.360;2023-07-29T09:20:28;3.72;;;1.65;;
36191;SDS011;22233;42.708;23.360;2023-07-29T09:22:54;2.15;;;1.83;;
36191;SDS011;22233;42.708;23.360;2023-07-29T09:25:26;2.30;;;1.75;;
36191;SDS011;22233;42.708;23.360;2023-07-29T09:27:53;3.33;;;1.70;;
36191;SDS011;22233;42.708;23.360;2023-07-29T09:30:24;4.07;;;1.63;;
36191;SDS011;22233;42.708;23.360;2023-07-29T09:32:54;2.70;;;1.50;;
36191;SDS011;22233;42.708;23.360;2023-07-29T09:35:23;1.50;;;1.40;;
36191;SDS011;22233;42.708;23.360;2023-07-29T09:37:50;2.97;;;1.45;;
36191;SDS011;22233;42.708;23.360;2023-07-29T09:40:17;2.00;;;1.33;;
36191;SDS011;22233;42.708;23.360;2023-07-29T09:42:52;1.88;;;1.52;;
36191;SDS011;22233;42.708;23.360;2023-07-29T09:45:24;2.20;;;1.27;;
36191;SDS011;22233;42.708;23.360;2023-07-29T09:47:54;1.58;;;1.25;;
36191;SDS011;22233;42.708;23.360;2023-07-29T09:50:24;3.90;;;1.70;;
36191;SDS011;22233;42.708;23.360;2023-07-29T09:52:51;3.63;;;1.35;;
36191;SDS011;22233;42.708;23.360;2023-07-29T09:55:17;2.63;;;1.38;;
36191;SDS011;22233;42.708;23.360;2023-07-29T09:57:44;1.90;;;1.42;;
36191;SDS011;22233;42.708;23.360;2023-07-29T10:00:13;1.77;;;1.40;;
36191;SDS011;22233;42.708;23.360;2023-07-29T10:02:42;1.80;;;1.13;;
36191;SDS011;22233;42.708;23.360;2023-07-29T10:05:08;1.63;;;1.25;;
36191;SDS011;22233;42.708;23.360;2023-07-29T10:07:38;1.80;;;1.30;;
36191;SDS011;22233;42.708;23.360;2023-07-29T10:10:05;1.23;;;1.13;;
36191;SDS011;22233;42.708;23.360;2023-07-29T10:15:06;2.75;;;1.13;;
36191;SDS011;22233;42.708;23.360;2023-07-29T10:17:33;2.75;;;1.35;;
36191;SDS011;22233;42.708;23.360;2023-07-29T10:20:00;1.63;;;0.80;;
36191;SDS011;22233;42.708;23.360;2023-07-29T10:22:37;1.13;;;1.00;;
36191;SDS011;22233;42.708;23.360;2023-07-29T10:25:07;1.00;;;0.82;;
36191;SDS011;22233;42.708;23.360;2023-07-29T10:27:38;1.00;;;0.80;;
36191;SDS011;22233;42.708;23.360;2023-07-29T10:30:12;1.23;;;0.80;;
36191;SDS011;22233;42.708;23.360;2023-07-29T10:32:41;1.30;;;1.20;;
36191;SDS011;22233;42.708;23.360;2023-07-29T10:35:11;1.55;;;1.00;;
36191;SDS011;22233;42.708;23.360;2023-07-29T10:37:38;2.03;;;0.90;;
36191;SDS011;22233;42.708;23.360;2023-07-29T10:40:08;1.40;;;0.70;;
36191;SDS011;22233;42.708;23.360;2023-07-29T10:42:36;1.88;;;0.80;;
36191;SDS011;22233;42.708;23.360;2023-07-29T10:45:16;2.20;;;0.82;;
36191;SDS011;22233;42.708;23.360;2023-07-29T10:47:44;2.80;;;0.90;;
36191;SDS011;22233;42.708;23.360;2023-07-29T10:50:20;1.60;;;0.70;;
36191;SDS011;22233;42.708;23.360;2023-07-29T10:52:50;1.17;;;0.77;;
36191;SDS011;22233;42.708;23.360;2023-07-29T10:55:24;1.10;;;0.63;;
36191;SDS011;22233;42.708;23.360;2023-07-29T10:58:14;0.85;;;0.70;;
36191;SDS011;22233;42.708;23.360;2023-07-29T11:00:44;1.58;;;1.17;;
36191;SDS011;22233;42.708;23.360;2023-07-29T11:03:11;1.60;;;0.93;;
36191;SDS011;22233;42.708;23.360;2023-07-29T11:08:16;0.95;;;0.63;;
36191;SDS011;22233;42.708;23.360;2023-07-29T11:10:43;2.15;;;0.98;;
36191;SDS011;22233;42.708;23.360;2023-07-29T11:13:10;1.52;;;0.80;;
36191;SDS011;22233;42.708;23.360;2023-07-29T11:15:36;1.00;;;0.60;;
36191;SDS011;22233;42.708;23.360;2023-07-29T11:18:04;0.85;;;0.70;;
36191;SDS011;22233;42.708;23.360;2023-07-29T11:20:32;1.02;;;0.60;;
36191;SDS011;22233;42.708;23.360;2023-07-29T11:22:59;1.48;;;1.00;;
36191;SDS011;22233;42.708;23.360;2023-07-29T11:25:26;0.80;;;0.60;;
36191;SDS011;22233;42.708;23.360;2023-07-29T11:27:53;2.10;;;0.70;;
36191;SDS011;22233;42.708;23.360;2023-07-29T11:30:20;3.10;;;0.80;;
36191;SDS011;22233;42.708;23.360;2023-07-29T11:32:48;1.05;;;0.75;;
36191;SDS011;22233;42.708;23.360;2023-07-29T11:35:17;1.67;;;0.88;;
36191;SDS011;22233;42.708;23.360;2023-07-29T11:37:44;0.90;;;0.60;;
36191;SDS011;22233;42.708;23.360;2023-07-29T11:40:13;1.80;;;0.93;;
36191;SDS011;22233;42.708;23.360;2023-07-29T11:42:40;1.08;;;0.75;;
36191;SDS011;22233;42.708;23.360;2023-07-29T11:45:06;2.08;;;0.70;;
36191;SDS011;22233;42.708;23.360;2023-07-29T11:47:32;1.13;;;0.82;;
36191;SDS011;22233;42.708;23.360;2023-07-29T11:50:02;1.38;;;0.95;;
36191;SDS011;22233;42.708;23.360;2023-07-29T11:54:56;1.02;;;0.93;;
36191;SDS011;22233;42.708;23.360;2023-07-29T11:57:22;1.10;;;0.80;;
36191;SDS011;22233;42.708;23.360;2023-07-29T11:59:48;1.85;;;1.10;;
36191;SDS011;22233;42.708;23.360;2023-07-29T12:02:15;1.03;;;0.93;;
36191;SDS011;22233;42.708;23.360;2023-07-29T12:04:41;2.72;;;1.00;;
36191;SDS011;22233;42.708;23.360;2023-07-29T12:07:08;3.15;;;0.90;;
36191;SDS011;22233;42.708;23.360;2023-07-29T12:09:35;1.10;;;0.70;;
36191;SDS011;22233;42.708;23.360;2023-07-29T12:12:04;1.42;;;0.90;;
36191;SDS011;22233;42.708;23.360;2023-07-29T12:14:31;1.58;;;0.70;;
36191;SDS011;22233;42.708;23.360;2023-07-29T12:16:59;1.47;;;0.90;;
36191;SDS011;22233;42.708;23.360;2023-07-29T12:19:30;1.10;;;0.98;;
36191;SDS011;22233;42.708;23.360;2023-07-29T12:22:00;3.78;;;1.40;;
36191;SDS011;22233;42.708;23.360;2023-07-29T12:24:26;1.13;;;1.00;;
36191;SDS011;22233;42.708;23.360;2023-07-29T12:26:52;1.10;;;0.97;;
36191;SDS011;22233;42.708;23.360;2023-07-29T12:29:18;1.40;;;0.90;;
36191;SDS011;22233;42.708;23.360;2023-07-29T12:31:47;1.10;;;1.00;;
36191;SDS011;22233;42.708;23.360;2023-07-29T12:34:20;4.47;;;1.20;;
36191;SDS011;22233;42.708;23.360;2023-07-29T12:36:47;2.95;;;1.10;;
36191;SDS011;22233;42.708;23.360;2023-07-29T12:39:20;2.90;;;1.00;;
36191;SDS011;22233;42.708;23.360;2023-07-29T12:41:48;1.30;;;1.20;;
36191;SDS011;22233;42.708;23.360;2023-07-29T12:44:14;1.10;;;0.90;;
36191;SDS011;22233;42.708;23.360;2023-07-29T12:46:40;1.20;;;1.10;;
36191;SDS011;22233;42.708;23.360;2023-07-29T12:49:05;2.03;;;1.13;;
36191;SDS011;22233;42.708;23.360;2023-07-29T12:51:31;2.20;;;1.03;;
36191;SDS011;22233;42.708;23.360;2023-07-29T12:53:57;1.47;;;1.00;;
36191;SDS011;22233;42.708;23.360;2023-07-29T12:56:22;1.37;;;1.10;;
36191;SDS011;22233;42.708;23.360;2023-07-29T12:58:47;3.73;;;1.30;;
36191;SDS011;22233;42.708;23.360;2023-07-29T13:01:13;2.77;;;1.30;;
36191;SDS011;22233;42.708;23.360;2023-07-29T13:03:42;2.65;;;1.08;;
36191;SDS011;22233;42.708;23.360;2023-07-29T13:06:08;1.17;;;0.90;;
36191;SDS011;22233;42.708;23.360;2023-07-29T13:08:34;4.43;;;0.93;;
36191;SDS011;22233;42.708;23.360;2023-07-29T13:10:59;2.10;;;0.97;;
36191;SDS011;22233;42.708;23.360;2023-07-29T13:13:24;2.40;;;1.00;;
36191;SDS011;22233;42.708;23.360;2023-07-29T13:15:50;1.20;;;1.00;;
36191;SDS011;22233;42.708;23.360;2023-07-29T13:18:15;4.17;;;1.00;;
36191;SDS011;22233;42.708;23.360;2023-07-29T13:20:40;1.20;;;1.00;;
36191;SDS011;22233;42.708;23.360;2023-07-29T13:23:06;1.47;;;1.10;;
36191;SDS011;22233;42.708;23.360;2023-07-29T13:25:31;3.07;;;1.10;;
36191;SDS011;22233;42.708;23.360;2023-07-29T13:27:57;1.87;;;1.27;;
36191;SDS011;22233;42.708;23.360;2023-07-29T13:30:22;1.40;;;1.00;;
36191;SDS011;22233;42.708;23.360;2023-07-29T13:32:47;3.23;;;1.00;;
36191;SDS011;22233;42.708;23.360;2023-07-29T13:35:13;3.13;;;1.00;;
36191;SDS011;22233;42.708;23.360;2023-07-29T13:37:38;1.40;;;1.10;;
36191;SDS011;22233;42.708;23.360;2023-07-29T13:40:04;2.97;;;1.20;;
36191;SDS011;22233;42.708;23.360;2023-07-29T13:42:30;1.90;;;1.05;;
36191;SDS011;22233;42.708;23.360;2023-07-29T13:44:55;2.27;;;1.40;;
36191;SDS011;22233;42.708;23.360;2023-07-29T13:47:20;1.20;;;0.93;;
36191;SDS011;22233;42.708;23.360;2023-07-29T13:49:46;1.43;;;1.20;;
36191;SDS011;22233;42.708;23.360;2023-07-29T13:52:12;2.00;;;1.20;;
36191;SDS011;22233;42.708;23.360;2023-07-29T13:54:37;2.00;;;1.33;;
36191;SDS011;22233;42.708;23.360;2023-07-29T13:57:04;1.60;;;1.20;;
36191;SDS011;22233;42.708;23.360;2023-07-29T13:59:29;1.87;;;1.30;;
36191;SDS011;22233;42.708;23.360;2023-07-29T14:01:55;1.20;;;0.90;;
36191;SDS011;22233;42.708;23.360;2023-07-29T14:04:20;1.00;;;0.90;;
36191;SDS011;22233;42.708;23.360;2023-07-29T14:06:45;2.53;;;1.20;;
36191;SDS011;22233;42.708;23.360;2023-07-29T14:09:11;2.87;;;1.30;;
36191;SDS011;22233;42.708;23.360;2023-07-29T14:11:36;1.00;;;0.90;;
36191;SDS011;22233;42.708;23.360;2023-07-29T14:14:01;1.40;;;1.30;;
36191;SDS011;22233;42.708;23.360;2023-07-29T14:16:27;1.40;;;1.10;;
36191;SDS011;22233;42.708;23.360;2023-07-29T14:18:52;1.67;;;1.40;;
36191;SDS011;22233;42.708;23.360;2023-07-29T14:21:18;1.20;;;1.10;;
36191;SDS011;22233;42.708;23.360;2023-07-29T14:23:43;2.97;;;1.40;;
36191;SDS011;22233;42.708;23.360;2023-07-29T14:26:08;2.03;;;1.43;;
36191;SDS011;22233;42.708;23.360;2023-07-29T14:28:35;5.10;;;1.40;;
36191;SDS011;22233;42.708;23.360;2023-07-29T14:31:01;3.38;;;1.20;;
36191;SDS011;22233;42.708;23.360;2023-07-29T14:33:26;1.33;;;1.23;;
36191;SDS011;22233;42.708;23.360;2023-07-29T14:35:52;1.70;;;1.20;;
36191;SDS011;22233;42.708;23.360;2023-07-29T14:38:18;2.57;;;1.53;;
36191;SDS011;22233;42.708;23.360;2023-07-29T14:40:43;1.43;;;1.20;;
36191;SDS011;22233;42.708;23.360;2023-07-29T14:43:09;1.83;;;1.53;;
36191;SDS011;22233;42.708;23.360;2023-07-29T14:45:34;2.50;;;1.90;;
36191;SDS011;22233;42.708;23.360;2023-07-29T14:47:59;3.57;;;1.60;;